Time;durP1;ratioP1;P1;durP2;ratioP2;P2;SDS_P1;SDS_P2;PMS_P1;PMS_P2;Temp;Humidity;BMP_temperature;BMP_pressure;BME280_temperature;BME280_humidity;BME280_pressure;Samples;Min_cycle;Max_cycle;Signal;HPM_P1;HPM_P2
2024/02/05 00:01:52;;;;;;;9.68;5.10;;;;;;;9.63;100.00;100604.72;4846233;29;20049;-80
2024/02/05 00:04:24;;;;;;;9.68;5.72;;;;;;;9.62;100.00;100601.25;4869001;29;20416;-79
2024/02/05 00:06:51;;;;;;;7.78;4.93;;;;;;;9.61;100.00;100604.72;4857790;29;20048;-81
2024/02/05 00:09:19;;;;;;;8.50;4.97;;;;;;;9.59;100.00;100590.78;4867712;29;20608;-80
2024/02/05 00:11:45;;;;;;;8.25;5.10;;;;;;;9.60;100.00;100588.16;4854070;29;20398;-81
2024/02/05 00:14:12;;;;;;;7.90;4.88;;;;;;;9.59;100.00;100607.38;4856838;29;20097;-79
2024/02/05 00:16:39;;;;;;;7.00;4.78;;;;;;;9.56;100.00;100601.28;4868506;29;20533;-80
2024/02/05 00:19:05;;;;;;;6.20;4.60;;;;;;;9.55;100.00;100604.75;4877841;29;20136;-78
2024/02/05 00:21:32;;;;;;;8.10;4.65;;;;;;;9.55;100.00;100591.69;4855381;29;20152;-81
2024/02/05 00:23:58;;;;;;;5.68;5.03;;;;;;;9.53;100.00;100596.03;4855733;29;20057;-81
2024/02/05 00:26:25;;;;;;;8.43;4.90;;;;;;;9.52;100.00;100582.13;4880040;29;20101;-79
2024/02/05 00:28:51;;;;;;;5.10;4.38;;;;;;;9.51;100.00;100598.69;4873884;29;20065;-80
2024/02/05 00:31:18;;;;;;;7.60;4.72;;;;;;;9.51;100.00;100589.97;4886722;29;20049;-79
2024/02/05 00:33:47;;;;;;;8.45;4.57;;;;;;;9.52;100.00;100599.56;4865620;29;20045;-82
2024/02/05 00:36:14;;;;;;;10.02;4.38;;;;;;;9.50;100.00;100607.38;4857919;29;20067;-79
2024/02/05 00:38:40;;;;;;;5.05;3.80;;;;;;;9.49;100.00;100603.06;4854696;29;20094;-80
2024/02/05 00:41:08;;;;;;;5.53;4.05;;;;;;;9.48;100.00;100603.94;4854959;29;20045;-80
2024/02/05 00:43:35;;;;;;;5.07;4.15;;;;;;;9.49;100.00;100603.06;4866878;29;20052;-78
2024/02/05 00:46:26;;;;;;;7.35;3.70;;;;;;;9.46;100.00;100597.84;4877643;29;20509;-81
2024/02/05 00:48:57;;;;;;;5.40;4.25;;;;;;;9.47;100.00;100603.94;4855063;29;20045;-82
2024/02/05 00:51:24;;;;;;;5.50;4.00;;;;;;;9.46;100.00;100594.38;4871409;29;20056;-81
2024/02/05 00:53:50;;;;;;;6.63;4.07;;;;;;;9.46;100.00;100615.25;4857968;29;20769;-80
2024/02/05 00:56:20;;;;;;;3.90;3.50;;;;;;;9.43;100.00;100601.31;4871917;29;20474;-80
2024/02/05 00:58:49;;;;;;;4.32;3.92;;;;;;;9.40;100.00;100611.81;4856956;29;20462;-80
2024/02/05 01:01:15;;;;;;;4.15;3.75;;;;;;;9.41;100.00;100597.00;4870356;29;20064;-80
2024/02/05 01:03:43;;;;;;;7.50;4.72;;;;;;;9.39;100.00;100603.97;4858828;29;20131;-81
2024/02/05 01:06:12;;;;;;;3.80;3.40;;;;;;;9.37;100.00;100613.56;4869668;29;20057;-80
2024/02/05 01:08:39;;;;;;;3.67;3.35;;;;;;;9.37;100.00;100606.59;4871983;29;20067;-79
2024/02/05 01:11:06;;;;;;;5.93;3.50;;;;;;;9.36;100.00;100617.03;4867485;29;20053;-80
2024/02/05 01:13:32;;;;;;;5.85;3.50;;;;;;;9.33;100.00;100599.63;4857815;29;20075;-79
2024/02/05 01:15:59;;;;;;;3.03;2.60;;;;;;;9.35;100.00;100612.72;4871871;29;20057;-80
2024/02/05 01:18:26;;;;;;;3.30;2.80;;;;;;;9.32;100.00;100608.38;4869202;29;20048;-79
2024/02/05 01:20:52;;;;;;;4.88;3.15;;;;;;;9.32;100.00;100621.44;4875119;29;20510;-80
2024/02/05 01:23:19;;;;;;;4.82;2.90;;;;;;;9.31;100.00;100629.25;4869515;29;20080;-82
2024/02/05 01:25:45;;;;;;;3.65;3.35;;;;;;;9.31;100.00;100622.31;4873927;29;20053;-80
2024/02/05 01:28:12;;;;;;;6.28;3.20;;;;;;;9.33;100.00;100630.13;4854726;29;20072;-79
2024/02/05 01:30:39;;;;;;;7.05;3.35;;;;;;;9.31;100.00;100617.06;4874962;29;20055;-80
2024/02/05 01:33:06;;;;;;;3.95;2.95;;;;;;;9.33;100.00;100625.75;4856571;29;20139;-80
2024/02/05 01:35:32;;;;;;;4.32;3.45;;;;;;;9.32;100.00;100631.88;4863790;29;20076;-81
2024/02/05 01:37:59;;;;;;;5.18;3.45;;;;;;;9.32;100.00;100634.50;4859939;29;20188;-80
2024/02/05 01:40:25;;;;;;;4.00;3.60;;;;;;;9.31;100.00;100624.03;4855142;29;20071;-79
2024/02/05 01:42:52;;;;;;;4.75;3.50;;;;;;;9.32;100.00;100625.78;4867007;29;20079;-81
2024/02/05 01:45:18;;;;;;;5.32;4.10;;;;;;;9.32;100.00;100623.16;4874781;29;20136;-80
2024/02/05 01:47:45;;;;;;;9.38;3.72;;;;;;;9.32;100.00;100624.03;4866208;29;20478;-80
2024/02/05 01:50:15;;;;;;;7.22;4.13;;;;;;;9.32;100.00;100621.44;4856504;29;20573;-79
2024/02/05 01:52:49;;;;;;;4.45;3.45;;;;;;;9.34;100.00;100621.41;4856877;29;20098;-80
2024/02/05 01:55:18;;;;;;;5.13;3.92;;;;;;;9.30;100.00;100620.56;4865608;29;20056;-80
2024/02/05 01:57:52;;;;;;;6.00;3.90;;;;;;;9.32;100.00;100621.44;4859196;29;20056;-80
2024/02/05 02:00:19;;;;;;;5.00;3.67;;;;;;;9.35;100.00;100625.78;4868587;29;20110;-81
2024/02/05 02:02:46;;;;;;;4.22;3.83;;;;;;;9.32;100.00;100626.66;4859251;29;20080;-80
2024/02/05 02:05:16;;;;;;;8.02;4.50;;;;;;;9.32;100.00;100607.47;4876032;29;20053;-80
2024/02/05 02:07:43;;;;;;;9.60;4.88;;;;;;;9.32;100.00;100621.44;4855387;29;20139;-80
2024/02/05 02:10:11;;;;;;;7.63;5.13;;;;;;;9.33;100.00;100615.31;4868175;29;20495;-80
2024/02/05 02:12:39;;;;;;;9.63;4.85;;;;;;;9.32;100.00;100642.34;4889827;29;20060;-79
2024/02/05 02:15:06;;;;;;;7.40;4.63;;;;;;;9.37;100.00;100629.22;4858976;29;20060;-79
2024/02/05 02:17:37;;;;;;;10.80;5.30;;;;;;;9.32;100.00;100608.38;4866321;29;20073;-80
2024/02/05 02:20:05;;;;;;;10.23;5.28;;;;;;;9.36;100.00;100637.94;4852914;29;20048;-80
2024/02/05 02:22:48;;;;;;;11.27;5.32;;;;;;;9.36;100.00;100631.00;4872641;29;20053;-82
2024/02/05 02:25:15;;;;;;;9.73;5.20;;;;;;;9.35;100.00;100631.00;4872334;29;20064;-79
2024/02/05 02:27:43;;;;;;;10.77;4.75;;;;;;;9.37;100.00;100629.22;4854256;29;20850;-80
2024/02/05 02:30:14;;;;;;;11.82;5.20;;;;;;;9.36;100.00;100633.59;4870429;29;20049;-80
2024/02/05 02:33:09;;;;;;;11.18;6.22;;;;;;;9.38;100.00;100637.06;4855436;29;20260;-80
2024/02/05 02:35:42;;;;;;;8.85;5.82;;;;;;;9.38;100.00;100629.22;4857298;29;20461;-79
2024/02/05 02:38:18;;;;;;;15.85;5.55;;;;;;;9.38;100.00;100631.84;4855948;29;20521;-79
2024/02/05 02:40:50;;;;;;;10.05;5.50;;;;;;;9.38;100.00;100629.22;4870632;29;20048;-80
2024/02/05 02:43:19;;;;;;;12.63;6.07;;;;;;;9.38;100.00;100630.97;4856509;29;20578;-81
2024/02/05 02:45:50;;;;;;;11.52;8.57;;;;;;;9.36;100.00;100623.16;4857080;29;20053;-80
2024/02/05 02:48:16;;;;;;;15.45;6.35;;;;;;;9.38;100.00;100625.75;4857904;29;20056;-80
2024/02/05 02:50:43;;;;;;;13.45;6.10;;;;;;;9.37;100.00;100630.13;4856779;29;20062;-79
2024/02/05 02:53:10;;;;;;;11.38;6.00;;;;;;;9.35;100.00;100637.09;4864354;29;20059;-80
2024/02/05 02:55:36;;;;;;;10.40;5.43;;;;;;;9.35;100.00;100624.03;4868502;29;20053;-80
2024/02/05 02:58:03;;;;;;;12.40;5.97;;;;;;;9.31;100.00;100624.03;4875301;29;20052;-80
2024/02/05 03:00:32;;;;;;;10.35;6.07;;;;;;;9.29;100.00;100624.03;4885761;29;20061;-82
2024/02/05 03:02:58;;;;;;;10.88;6.55;;;;;;;9.27;100.00;100626.66;4870815;29;20064;-80
2024/02/05 03:05:25;;;;;;;11.02;5.65;;;;;;;9.29;100.00;100628.41;4872624;29;20061;-80
2024/02/05 03:07:51;;;;;;;14.05;5.93;;;;;;;9.28;100.00;100632.75;4866979;29;20052;-79
2024/02/05 03:10:18;;;;;;;10.68;6.30;;;;;;;9.27;100.00;100633.66;4873075;29;20055;-78
2024/02/05 03:12:44;;;;;;;9.55;5.45;;;;;;;9.26;100.00;100627.53;4879944;29;20128;-79
2024/02/05 03:15:11;;;;;;;14.25;5.88;;;;;;;9.23;100.00;100630.16;4857008;29;20033;-81
2024/02/05 03:17:38;;;;;;;12.57;6.07;;;;;;;9.24;100.00;100625.81;4869551;29;20053;-80
2024/02/05 03:20:06;;;;;;;13.30;5.82;;;;;;;9.21;100.00;100639.75;4857096;29;20041;-79
2024/02/05 03:22:33;;;;;;;13.75;6.80;;;;;;;9.19;100.00;100640.63;4849200;29;20053;-82
2024/02/05 03:24:59;;;;;;;9.82;6.50;;;;;;;9.19;100.00;100653.69;4871028;29;20691;-80
2024/02/05 03:27:26;;;;;;;8.20;6.32;;;;;;;9.19;100.00;100641.50;4856819;29;20049;-79
2024/02/05 03:29:52;;;;;;;16.48;7.18;;;;;;;9.18;100.00;100644.13;4871541;29;20053;-80
2024/02/05 03:32:19;;;;;;;9.80;5.53;;;;;;;9.18;100.00;100631.94;4869286;29;20489;-82
2024/02/05 03:34:45;;;;;;;14.43;5.85;;;;;;;9.18;100.00;100644.97;4867311;29;20051;-80
2024/02/05 03:37:12;;;;;;;11.68;6.13;;;;;;;9.17;100.00;100653.69;4869690;29;20049;-80
2024/02/05 03:39:40;;;;;;;13.93;5.93;;;;;;;9.17;100.00;100656.28;4872201;29;20404;-79
2024/02/05 03:42:07;;;;;;;16.58;7.50;;;;;;;9.17;100.00;100642.38;4864776;29;20054;-80
2024/02/05 03:44:34;;;;;;;20.20;6.53;;;;;;;9.17;100.00;100651.06;4859639;29;20056;-81
2024/02/05 03:47:00;;;;;;;19.05;6.70;;;;;;;9.17;100.00;100655.44;4846871;29;20555;-79
2024/02/05 03:49:28;;;;;;;15.23;7.03;;;;;;;9.15;100.00;100659.78;4869777;29;20056;-82
2024/02/05 03:51:56;;;;;;;15.80;6.53;;;;;;;9.16;100.00;100656.31;4857337;29;20764;-79
2024/02/05 03:54:22;;;;;;;13.65;6.25;;;;;;;9.16;100.00;100649.34;4870664;29;20162;-80
2024/02/05 03:56:49;;;;;;;16.63;8.27;;;;;;;9.16;100.00;100665.00;4870743;29;20055;-81
2024/02/05 03:59:16;;;;;;;16.25;6.50;;;;;;;9.16;100.00;100667.59;4873955;29;20549;-79
2024/02/05 04:01:43;;;;;;;12.85;6.75;;;;;;;9.13;100.00;100648.50;4883593;29;20065;-80
2024/02/05 04:04:10;;;;;;;22.73;6.90;;;;;;;9.14;100.00;100658.94;4863096;29;20153;-82
2024/02/05 04:06:38;;;;;;;17.13;7.22;;;;;;;9.12;100.00;100657.19;4863780;29;20438;-80
2024/02/05 04:09:07;;;;;;;17.38;7.50;;;;;;;9.12;100.00;100657.19;4854095;29;20056;-79
2024/02/05 04:11:33;;;;;;;13.20;6.60;;;;;;;9.14;100.00;100676.31;4875088;29;20088;-81
2024/02/05 04:14:00;;;;;;;15.40;7.00;;;;;;;9.15;100.00;100667.63;4868455;29;20540;-80
2024/02/05 04:16:26;;;;;;;13.95;6.63;;;;;;;9.14;100.00;100661.53;4855279;29;20084;-81
2024/02/05 04:18:53;;;;;;;24.65;9.15;;;;;;;9.13;100.00;100672.00;4871685;29;20117;-82
2024/02/05 04:21:20;;;;;;;22.60;7.03;;;;;;;9.14;100.00;100673.72;4872501;29;20959;-80
2024/02/05 04:23:46;;;;;;;23.20;6.47;;;;;;;9.13;100.00;100682.44;4854593;29;20085;-81
2024/02/05 04:26:17;;;;;;;13.40;6.55;;;;;;;9.16;100.00;100670.22;4877266;29;20053;-79
2024/02/05 04:28:44;;;;;;;21.25;7.65;;;;;;;9.18;100.00;100671.09;4851227;29;20053;-80
2024/02/05 04:31:14;;;;;;;14.50;6.20;;;;;;;9.17;100.00;100679.81;4866741;29;20060;-80
2024/02/05 04:33:40;;;;;;;24.17;8.57;;;;;;;9.17;100.00;100679.81;4865724;29;20658;-80
2024/02/05 04:36:14;;;;;;;11.82;7.03;;;;;;;9.20;100.00;100676.31;4851904;29;20053;-79
2024/02/05 04:38:41;;;;;;;19.65;6.82;;;;;;;9.20;100.00;100685.00;4866322;29;20469;-79
2024/02/05 04:41:11;;;;;;;19.73;8.30;;;;;;;9.22;100.00;100679.81;4855784;29;20696;-81
2024/02/05 04:43:39;;;;;;;25.25;8.02;;;;;;;9.22;100.00;100674.59;4854068;29;20057;-80
2024/02/05 04:46:08;;;;;;;23.13;8.02;;;;;;;9.23;100.00;100679.78;4854765;29;20370;-80
2024/02/05 04:48:35;;;;;;;18.67;7.45;;;;;;;9.24;100.00;100662.38;4855428;29;20796;-80
2024/02/05 04:51:02;;;;;;;16.30;6.40;;;;;;;9.25;100.00;100664.97;4851809;29;20041;-80
2024/02/05 04:53:28;;;;;;;23.25;8.55;;;;;;;9.26;100.00;100650.19;4869835;29;20061;-79
2024/02/05 04:55:55;;;;;;;21.73;7.35;;;;;;;9.32;100.00;100652.78;4857711;29;20105;-81
2024/02/05 04:58:26;;;;;;;22.40;6.93;;;;;;;9.31;100.00;100648.44;4874383;29;20077;-83
2024/02/05 05:00:53;;;;;;;19.58;5.72;;;;;;;9.37;100.00;100653.63;4873342;29;20049;-82
2024/02/05 05:03:20;;;;;;;23.63;7.22;;;;;;;9.42;100.00;100640.53;4889757;29;20454;-80
2024/02/05 05:05:46;;;;;;;23.67;8.32;;;;;;;9.45;100.00;100656.19;4866275;29;20034;-80
2024/02/05 05:08:13;;;;;;;22.17;6.45;;;;;;;9.47;100.00;100645.75;4870243;29;22095;-80
2024/02/05 05:10:39;;;;;;;23.98;6.45;;;;;;;9.49;100.00;100641.38;4874286;29;20057;-82
2024/02/05 05:13:06;;;;;;;27.92;5.80;;;;;;;9.49;100.00;100654.44;4859054;29;20080;-81
2024/02/05 05:15:33;;;;;;;20.67;7.03;;;;;;;9.48;100.00;100650.06;4863476;29;20073;-79
2024/02/05 05:18:00;;;;;;;22.75;6.38;;;;;;;9.51;100.00;100652.69;4882507;29;20596;-81
2024/02/05 05:20:28;;;;;;;25.60;7.45;;;;;;;9.48;100.00;100632.66;4861454;29;20409;-80
2024/02/05 05:22:55;;;;;;;18.20;6.07;;;;;;;9.47;100.00;100641.38;4857425;29;20044;-80
2024/02/05 05:25:21;;;;;;;28.27;6.00;;;;;;;9.53;100.00;100640.47;4891186;29;20048;-79
2024/02/05 05:27:48;;;;;;;20.52;6.90;;;;;;;9.55;100.00;100644.81;4887250;29;20860;-80
2024/02/05 05:30:18;;;;;;;20.35;5.85;;;;;;;9.55;100.00;100647.44;4871637;29;20053;-80
2024/02/05 05:32:44;;;;;;;33.10;6.60;;;;;;;9.57;100.00;100640.47;4872380;29;20057;-80
2024/02/05 05:35:11;;;;;;;22.40;5.90;;;;;;;9.59;100.00;100637.84;4888246;29;20045;-80
2024/02/05 05:37:37;;;;;;;22.20;5.65;;;;;;;9.62;100.00;100632.63;4858453;29;20412;-81
2024/02/05 05:40:05;;;;;;;23.90;6.53;;;;;;;9.64;100.00;100636.06;4873671;29;20493;-80
2024/02/05 05:42:31;;;;;;;22.85;6.25;;;;;;;9.62;100.00;100636.94;4869192;29;20600;-81
2024/02/05 05:45:00;;;;;;;28.55;7.13;;;;;;;9.68;100.00;100636.94;4870028;29;20052;-81
2024/02/05 05:47:27;;;;;;;17.20;5.70;;;;;;;9.63;100.00;100631.72;4855852;29;20382;-80
2024/02/05 05:49:57;;;;;;;23.85;6.25;;;;;;;9.62;100.00;100650.03;4859901;29;20054;-80
2024/02/05 05:52:24;;;;;;;19.42;6.32;;;;;;;9.63;100.00;100642.16;4871017;29;20546;-82
2024/02/05 05:54:50;;;;;;;19.35;5.90;;;;;;;9.64;100.00;100632.59;4855833;29;20196;-80
2024/02/05 05:57:17;;;;;;;15.85;4.93;;;;;;;9.61;100.00;100615.19;4876701;29;20140;-80
2024/02/05 05:59:43;;;;;;;24.73;5.70;;;;;;;9.66;100.00;100622.97;4869073;29;20410;-80
2024/02/05 06:02:10;;;;;;;14.70;4.80;;;;;;;9.62;100.00;100627.38;4883099;29;20061;-81
2024/02/05 06:04:37;;;;;;;20.42;6.03;;;;;;;9.58;100.00;100634.38;4865752;29;20437;-81
2024/02/05 06:07:06;;;;;;;21.45;6.20;;;;;;;9.58;100.00;100625.63;4848269;29;20721;-80
2024/02/05 06:09:33;;;;;;;22.80;6.40;;;;;;;9.54;100.00;100637.00;4854049;29;20459;-81
2024/02/05 06:12:02;;;;;;;17.60;5.32;;;;;;;9.55;100.00;100621.28;4848568;29;20049;-79
2024/02/05 06:14:30;;;;;;;21.30;5.63;;;;;;;9.58;100.00;100631.75;4869007;29;20529;-81
2024/02/05 06:16:57;;;;;;;24.13;6.15;;;;;;;9.63;100.00;100628.25;4856237;29;20076;-80
2024/02/05 06:19:23;;;;;;;19.45;5.47;;;;;;;9.64;100.00;100648.28;4857473;29;20136;-81
2024/02/05 06:21:51;;;;;;;22.10;8.60;;;;;;;9.59;100.00;100643.94;4888274;29;20498;-83
2024/02/05 06:24:18;;;;;;;20.20;6.13;;;;;;;9.57;100.00;100631.78;4873781;29;20065;-80
2024/02/05 06:26:44;;;;;;;24.08;6.20;;;;;;;9.59;100.00;100640.44;4867415;29;20038;-80
2024/02/05 06:29:11;;;;;;;22.25;6.82;;;;;;;9.60;100.00;100642.19;4867305;29;20119;-81
2024/02/05 06:31:38;;;;;;;17.85;6.82;;;;;;;9.58;100.00;100636.09;4874915;29;20056;-80
2024/02/05 06:34:04;;;;;;;18.98;6.15;;;;;;;9.53;100.00;100628.28;4859755;29;20049;-81
2024/02/05 06:36:33;;;;;;;27.50;7.30;;;;;;;9.51;100.00;100637.88;4871657;29;20576;-82
2024/02/05 06:39:03;;;;;;;22.33;8.70;;;;;;;9.52;100.00;100638.75;4873555;29;20059;-80
2024/02/05 06:41:33;;;;;;;19.48;7.00;;;;;;;9.49;100.00;100628.31;4858881;29;20060;-81
2024/02/05 06:44:02;;;;;;;21.85;6.45;;;;;;;9.51;100.00;100623.94;4884740;29;20056;-80
2024/02/05 06:46:28;;;;;;;21.15;6.53;;;;;;;9.49;100.00;100626.56;4874652;29;20097;-81
2024/02/05 06:48:55;;;;;;;21.33;6.35;;;;;;;9.49;100.00;100639.66;4869337;29;20049;-82
2024/02/05 06:51:22;;;;;;;25.50;6.13;;;;;;;9.46;100.00;100639.63;4877407;29;20055;-81
2024/02/05 06:53:48;;;;;;;21.23;8.25;;;;;;;9.41;100.00;100637.06;4872021;29;20050;-81
2024/02/05 06:56:16;;;;;;;25.00;8.40;;;;;;;9.46;100.00;100646.63;4870137;29;20109;-81
2024/02/05 06:58:44;;;;;;;21.13;6.40;;;;;;;9.42;100.00;100650.97;4868997;29;20075;-79
2024/02/05 07:01:11;;;;;;;23.60;6.95;;;;;;;9.40;100.00;100648.38;4872230;29;20053;-80
2024/02/05 07:03:38;;;;;;;22.63;6.03;;;;;;;9.40;100.00;100642.31;4857358;29;20533;-81
2024/02/05 07:06:04;;;;;;;22.15;6.95;;;;;;;9.39;100.00;100664.94;4858807;29;20065;-80
2024/02/05 07:08:31;;;;;;;20.20;6.68;;;;;;;9.42;100.00;100661.44;4873999;29;20125;-81
2024/02/05 07:10:58;;;;;;;24.02;7.35;;;;;;;9.44;100.00;100667.53;4855068;29;20537;-81
2024/02/05 07:13:24;;;;;;;21.52;6.93;;;;;;;9.44;100.00;100665.78;4875427;29;20490;-81
2024/02/05 07:15:51;;;;;;;22.40;6.72;;;;;;;9.44;100.00;100670.16;4859417;29;20048;-83
2024/02/05 07:18:18;;;;;;;27.75;6.78;;;;;;;9.42;100.00;100638.78;4879669;29;20068;-83
2024/02/05 07:20:44;;;;;;;24.48;6.35;;;;;;;9.45;100.00;100664.03;4861123;29;20144;-83
2024/02/05 07:23:11;;;;;;;15.85;5.72;;;;;;;9.43;100.00;100679.72;4876523;29;20049;-82
2024/02/05 07:25:40;;;;;;;23.33;7.93;;;;;;;9.43;100.00;100681.47;4862593;29;20589;-82
2024/02/05 07:28:07;;;;;;;22.90;7.15;;;;;;;9.39;100.00;100680.59;4862824;29;20052;-81
2024/02/05 07:30:36;;;;;;;16.75;6.20;;;;;;;9.40;100.00;100676.25;4871042;29;20081;-82
2024/02/05 07:33:02;;;;;;;23.08;6.07;;;;;;;9.42;100.00;100696.25;4868731;29;20045;-83
2024/02/05 07:35:29;;;;;;;28.27;6.97;;;;;;;9.41;100.00;100685.81;4868602;29;20045;-83
2024/02/05 07:37:56;;;;;;;26.77;8.52;;;;;;;9.41;100.00;100691.94;4858609;29;20061;-82
2024/02/05 07:40:23;;;;;;;28.65;7.03;;;;;;;9.42;100.00;100696.25;4875321;29;20117;-82
2024/02/05 07:42:49;;;;;;;18.73;7.55;;;;;;;9.40;100.00;100707.63;4862504;29;20049;-82
2024/02/05 07:45:16;;;;;;;28.92;8.25;;;;;;;9.41;100.00;100711.94;4871675;29;20049;-81
2024/02/05 07:47:42;;;;;;;32.13;7.35;;;;;;;9.38;100.00;100707.59;4869699;29;20072;-82
2024/02/05 07:50:09;;;;;;;17.65;6.38;;;;;;;9.40;100.00;100713.69;4863257;29;20045;-82
2024/02/05 07:52:36;;;;;;;24.83;6.78;;;;;;;9.37;100.00;100713.72;4873865;29;20534;-82
2024/02/05 07:55:02;;;;;;;33.90;7.43;;;;;;;9.35;100.00;100709.38;4875861;29;20142;-81
2024/02/05 07:57:29;;;;;;;20.83;7.18;;;;;;;9.34;100.00;100715.47;4862192;29;20057;-82
2024/02/05 07:59:57;;;;;;;22.60;6.65;;;;;;;9.36;100.00;100708.47;4879723;29;20105;-81
2024/02/05 08:02:25;;;;;;;22.95;8.30;;;;;;;9.37;100.00;100710.22;4876512;29;20052;-81
2024/02/05 08:04:54;;;;;;;19.98;5.18;;;;;;;9.37;100.00;100715.44;4864214;29;20054;-81
2024/02/05 08:07:20;;;;;;;19.73;6.53;;;;;;;9.39;100.00;100714.56;4869339;29;20069;-81
2024/02/05 08:09:48;;;;;;;32.30;7.55;;;;;;;9.41;100.00;100720.66;4872711;29;20057;-82
2024/02/05 08:12:15;;;;;;;23.90;6.65;;;;;;;9.41;100.00;100715.44;4884501;29;20049;-81
2024/02/05 08:14:41;;;;;;;21.50;7.18;;;;;;;9.43;100.00;100720.66;4877050;29;20063;-79
2024/02/05 08:17:08;;;;;;;21.88;4.88;;;;;;;9.44;100.00;100731.09;4873311;29;20454;-81
2024/02/05 08:19:35;;;;;;;22.42;5.60;;;;;;;9.43;100.00;100728.50;4874065;29;20108;-83
2024/02/05 08:22:02;;;;;;;17.55;5.38;;;;;;;9.41;100.00;100725.00;4868698;29;20065;-81
2024/02/05 08:24:31;;;;;;;29.48;7.60;;;;;;;9.42;100.00;100737.22;4870740;29;20108;-82
2024/02/05 08:26:58;;;;;;;22.38;6.53;;;;;;;9.42;100.00;100742.44;4866004;29;20124;-80
2024/02/05 08:29:24;;;;;;;29.52;6.53;;;;;;;9.39;100.00;100738.09;4870557;29;20106;-80
2024/02/05 08:31:52;;;;;;;16.90;5.28;;;;;;;9.44;100.00;100741.56;4885462;29;20136;-81
2024/02/05 08:34:18;;;;;;;25.00;6.70;;;;;;;9.39;100.00;100724.16;4864173;29;20045;-81
2024/02/05 08:36:45;;;;;;;20.42;5.78;;;;;;;9.40;100.00;100728.53;4861495;29;20041;-82
2024/02/05 08:39:12;;;;;;;16.77;7.60;;;;;;;9.46;100.00;100736.31;4880617;29;20049;-82
2024/02/05 08:41:39;;;;;;;21.27;5.57;;;;;;;9.48;100.00;100739.81;4871278;29;20417;-82
2024/02/05 08:44:06;;;;;;;29.65;6.10;;;;;;;9.47;100.00;100734.59;4881284;29;20168;-81
2024/02/05 08:46:33;;;;;;;16.25;6.22;;;;;;;9.47;100.00;100726.75;4879596;29;20047;-82
2024/02/05 08:48:59;;;;;;;23.60;6.07;;;;;;;9.47;100.00;100718.91;4862033;29;20041;-81
2024/02/05 08:51:30;;;;;;;13.90;5.63;;;;;;;9.48;100.00;100742.44;4862424;29;20053;-81
2024/02/05 08:53:57;;;;;;;16.90;6.03;;;;;;;9.46;100.00;100728.47;4891145;29;20453;-81
2024/02/05 08:56:24;;;;;;;22.33;6.47;;;;;;;9.52;100.00;100745.91;4874244;29;20049;-82
2024/02/05 08:58:51;;;;;;;18.40;4.68;;;;;;;9.53;100.00;100740.66;4884534;29;20136;-81
2024/02/05 09:01:18;;;;;;;20.23;6.13;;;;;;;9.51;100.00;100752.84;4859002;29;20057;-82
2024/02/05 09:03:44;;;;;;;17.15;5.25;;;;;;;9.51;100.00;100731.09;4855954;29;20053;-82
2024/02/05 09:06:14;;;;;;;21.73;6.05;;;;;;;9.52;100.00;100736.31;4875368;29;20045;-82
2024/02/05 09:08:40;;;;;;;16.48;5.38;;;;;;;9.57;100.00;100752.00;4871990;29;20427;-82
2024/02/05 09:11:09;;;;;;;21.33;6.03;;;;;;;9.60;100.00;100736.28;4872073;29;20406;-80
2024/02/05 09:13:37;;;;;;;28.95;5.25;;;;;;;9.64;100.00;100747.59;4871685;29;20057;-81
2024/02/05 09:16:05;;;;;;;26.48;6.28;;;;;;;9.55;100.00;100746.75;4876515;29;20060;-82
2024/02/05 09:18:31;;;;;;;26.40;5.95;;;;;;;9.57;100.00;100742.38;4878081;29;20081;-81
2024/02/05 09:20:58;;;;;;;19.80;5.85;;;;;;;9.59;100.00;100752.84;4864056;29;20049;-81
2024/02/05 09:23:25;;;;;;;24.15;5.32;;;;;;;9.58;100.00;100756.31;4879056;29;20147;-80
2024/02/05 09:25:52;;;;;;;21.40;6.95;;;;;;;9.58;100.00;100749.38;4878943;29;20049;-81
2024/02/05 09:28:18;;;;;;;27.05;6.70;;;;;;;9.62;100.00;100755.47;4865339;29;20048;-82
2024/02/05 09:30:45;;;;;;;23.00;7.50;;;;;;;9.58;100.00;100754.59;4878367;29;20049;-82
2024/02/05 09:33:11;;;;;;;19.08;5.82;;;;;;;9.56;100.00;100753.72;4857410;29;20050;-81
2024/02/05 09:35:38;;;;;;;20.38;5.80;;;;;;;9.54;100.00;100765.94;4860749;29;20117;-84
2024/02/05 09:38:05;;;;;;;21.50;6.32;;;;;;;9.58;100.00;100759.81;4871736;29;20450;-81
2024/02/05 09:40:32;;;;;;;20.10;5.35;;;;;;;9.58;100.00;100770.28;4881263;29;20441;-80
2024/02/05 09:42:59;;;;;;;28.33;8.65;;;;;;;9.56;100.00;100764.16;4866478;29;20777;-81
2024/02/05 09:45:28;;;;;;;30.67;7.32;;;;;;;9.58;100.00;100767.66;4876394;29;20073;-80
2024/02/05 09:47:58;;;;;;;24.35;7.20;;;;;;;9.55;100.00;100767.66;4860592;29;20053;-83
2024/02/05 09:50:27;;;;;;;20.58;6.10;;;;;;;9.54;100.00;100767.66;4878417;29;20084;-81
2024/02/05 09:52:57;;;;;;;25.83;5.38;;;;;;;9.52;100.00;100765.06;4870209;29;20046;-83
2024/02/05 09:55:24;;;;;;;20.48;4.93;;;;;;;9.54;100.00;100768.53;4880372;29;20059;-82
2024/02/05 09:57:54;;;;;;;21.90;5.60;;;;;;;9.54;100.00;100765.03;4889740;29;20109;-82
2024/02/05 10:00:20;;;;;;;19.90;6.63;;;;;;;9.56;100.00;100765.91;4879685;29;20085;-83
2024/02/05 10:02:48;;;;;;;20.13;6.25;;;;;;;9.54;100.00;100765.94;4874866;29;20053;-82
2024/02/05 10:05:18;;;;;;;19.27;5.43;;;;;;;9.52;100.00;100772.91;4885772;29;20053;-81
2024/02/05 10:07:49;;;;;;;23.98;5.60;;;;;;;9.52;100.00;100767.66;4870421;29;20041;-81
2024/02/05 10:10:16;;;;;;;19.85;6.15;;;;;;;9.57;100.00;100778.13;4871314;29;20144;-80
2024/02/05 10:12:46;;;;;;;20.70;6.13;;;;;;;9.50;100.00;100766.78;4858054;29;20049;-80
2024/02/05 10:15:14;;;;;;;17.10;5.65;;;;;;;9.53;100.00;100776.38;4867690;29;20128;-80
2024/02/05 10:17:41;;;;;;;29.33;5.93;;;;;;;9.55;100.00;100778.09;4875612;29;20052;-81
2024/02/05 10:20:12;;;;;;;27.23;6.53;;;;;;;9.56;100.00;100779.84;4861537;29;20045;-79
2024/02/05 10:22:47;;;;;;;27.25;6.45;;;;;;;9.55;100.00;100788.56;4878003;29;20417;-81
2024/02/05 10:25:14;;;;;;;21.17;6.40;;;;;;;9.55;100.00;100778.09;4874322;29;20072;-81
2024/02/05 10:27:42;;;;;;;26.48;7.28;;;;;;;9.56;100.00;100773.75;4878982;29;20045;-80
2024/02/05 10:30:10;;;;;;;15.85;6.47;;;;;;;9.60;100.00;100778.09;4876730;29;20438;-80
2024/02/05 10:32:37;;;;;;;19.98;5.78;;;;;;;9.60;100.00;100778.09;4868964;29;20064;-83
2024/02/05 10:35:03;;;;;;;19.38;5.65;;;;;;;9.60;100.00;100778.09;4891914;29;20041;-84
2024/02/05 10:37:36;;;;;;;21.88;5.72;;;;;;;9.60;100.00;100770.25;4889055;29;20049;-83
2024/02/05 10:40:10;;;;;;;24.45;7.30;;;;;;;9.59;100.00;100777.25;4890460;29;20427;-82
2024/02/05 10:42:37;;;;;;;14.77;4.72;;;;;;;9.55;100.00;100775.50;4895242;29;20057;-82
2024/02/05 10:45:09;;;;;;;16.30;5.57;;;;;;;9.62;100.00;100783.31;4889618;29;20057;-84
2024/02/05 10:47:38;;;;;;;14.25;5.65;;;;;;;9.60;100.00;100772.88;4890511;29;20056;-82
2024/02/05 10:50:09;;;;;;;21.83;5.75;;;;;;;9.57;100.00;100762.44;4853492;29;20053;-82
2024/02/05 10:52:39;;;;;;;21.67;6.45;;;;;;;9.58;100.00;100769.38;4876436;29;20053;-81
2024/02/05 10:55:08;;;;;;;13.48;6.32;;;;;;;9.50;100.00;100763.31;4874028;29;20120;-82
2024/02/05 10:57:38;;;;;;;16.90;5.53;;;;;;;9.60;100.00;100760.66;4854978;29;20041;-81
2024/02/05 11:00:09;;;;;;;15.15;5.40;;;;;;;9.52;100.00;100753.75;4852925;29;20088;-82
2024/02/05 11:02:56;;;;;;;16.65;5.88;;;;;;;9.52;100.00;100753.75;4861648;29;20048;-81
2024/02/05 11:05:25;;;;;;;17.48;5.22;;;;;;;9.53;100.00;100753.72;4877069;29;20052;-81
2024/02/05 11:08:09;;;;;;;14.90;5.45;;;;;;;9.54;100.00;100763.31;4865774;29;20462;-81
2024/02/05 11:10:44;;;;;;;15.07;6.40;;;;;;;9.57;100.00;100749.38;4874697;29;20056;-81
2024/02/05 11:13:18;;;;;;;16.88;5.22;;;;;;;9.57;100.00;100759.81;4875270;29;20069;-81
2024/02/05 11:15:47;;;;;;;19.55;5.85;;;;;;;9.53;100.00;100765.91;4875801;29;20398;-83
2024/02/05 11:18:19;;;;;;;22.02;4.90;;;;;;;9.53;100.00;100778.97;4855403;29;20084;-81
2024/02/05 11:20:49;;;;;;;16.27;6.18;;;;;;;9.58;100.00;100772.88;4882439;29;20093;-82
2024/02/05 11:23:18;;;;;;;16.98;5.90;;;;;;;9.55;100.00;100767.66;4873206;29;20049;-80